EICD weather

CLOSED Castlebridge Airport
Wexford, County Wexford, Ireland

Public forecast

Using degrees Celsius for public forecast. Weather courtesy of forecast.io.

Closest aviation weather report (METAR) to Castlebridge Airport

Closest report is Waterford Airport, 25.8 nm (47.8 km) WSW. Retrieved 2020/07/05 12:00 UTC (14 minutes ago):

EIWF 051200Z 29019KT 250V340 9999 -SHRA FEW020CB BKN043 16/08 Q1011

Closest aviation forecast (TAF) to Castlebridge Airport

Closest forecast is Dublin Airport, 63.5 nm (117.6 km) N. Retrieved 2020/07/05 12:09 UTC (5 minutes ago):

TAF EIDW 051100Z 0512/0612 26022G34KT 9999 FEW018 SCT030 TEMPO 0512/0520 -SHRA SCT018CB TEMPO 0512/0518 26024G39KT PROB40 TEMPO 0512/0518 5000 SHRA BECMG 0519/0521 27016G28KT TEMPO 0606/0609 31014KT